To NAV CANADA Home Page Login to a new session Search on AWWS site Feedback and Comments Disclaimer Vers la page française équivalente Tips FAQ What's new on the site To the Forecasts and Observations / NOTAM section To "File a Flight Plan" website Publications and other links Update of the User's profile FIC Telephone Numbers My Weather Data Folder Route Weather Data Regional Weather Data Local Weather Data To the Forecasts and Observations / NOTAM section
Request Generated 07/30/2016 at 16:50:13 UTC . Weather information available at that time is displayed.

METAR/TAF

SWIFT CURRENT/SK    (show WxCam)

METAR CYYN 301600Z AUTO 16010G16KT 9SM CLR 24/16 A2980 RMK SLP081
DENSITY ALT 4400FT=
METAR CYYN 301500Z AUTO 19008KT 9SM CLR 22/17 A2981 RMK SLP085
DENSITY ALT 4200FT=
METAR CYYN 301400Z AUTO 19007KT 9SM CLR 19/15 A2983 RMK SLP092
DENSITY ALT 3800FT=

TAF CYYN 301139Z 3012/3024 VRB03KT P6SM SKC
FM301600 16012KT P6SM SCT120 BKN240
RMK FCST BASED ON AUTO OBS. NXT FCST BY 301800Z=
Your time UTC time
Weather data provided by Environment Canada and NAV CANADA